createdAt,value
2018-05-26T00:00:41.220Z,99.90
2018-05-26T00:03:08.754Z,99.90
2018-05-26T00:05:37.186Z,98.90
2018-05-26T00:08:04.753Z,98.80
2018-05-26T00:10:32.280Z,99.90
2018-05-26T00:12:59.926Z,98.90
2018-05-26T00:15:27.555Z,99.30
2018-05-26T00:17:55.865Z,99.90
2018-05-26T00:20:23.417Z,99.90
2018-05-26T00:22:56.615Z,99.90
2018-05-26T00:25:24.129Z,99.90
2018-05-26T00:27:52.586Z,99.90
2018-05-26T00:30:20.160Z,99.90
2018-05-26T00:32:47.830Z,99.90
2018-05-26T00:35:16.309Z,99.90
2018-05-26T00:37:44.010Z,99.90
2018-05-26T00:40:11.594Z,99.90
2018-05-26T00:42:39.340Z,99.90
2018-05-26T00:45:06.892Z,99.90
2018-05-26T00:47:34.420Z,99.90
2018-05-26T00:50:02.754Z,99.90
2018-05-26T00:52:30.456Z,99.90
2018-05-26T00:54:58.881Z,99.90
2018-05-26T00:57:26.408Z,99.90
2018-05-26T00:59:53.940Z,99.90
2018-05-26T01:02:21.621Z,99.90
2018-05-26T01:04:49.177Z,99.90
2018-05-26T01:07:16.784Z,99.90
2018-05-26T01:09:44.522Z,99.90
2018-05-26T01:12:12.041Z,99.90
2018-05-26T01:14:40.455Z,99.90
2018-05-26T01:17:08.223Z,99.90
2018-05-26T01:19:35.724Z,99.90
2018-05-26T01:22:03.307Z,99.90
2018-05-26T01:24:31.610Z,99.90
2018-05-26T01:26:59.200Z,99.90
2018-05-26T01:29:26.829Z,99.90
2018-05-26T01:31:54.425Z,99.90
2018-05-26T01:34:22.012Z,99.90
2018-05-26T01:36:50.284Z,99.90
2018-05-26T01:39:18.577Z,99.90
2018-05-26T01:41:46.263Z,99.90
2018-05-26T01:44:13.802Z,99.90
2018-05-26T01:46:41.489Z,99.90
2018-05-26T01:49:09.044Z,99.90
2018-05-26T01:51:36.577Z,99.90
2018-05-26T01:54:04.201Z,99.90
2018-05-26T01:56:31.874Z,99.90
2018-05-26T01:59:00.184Z,99.90
2018-05-26T02:01:27.944Z,99.90
2018-05-26T02:03:55.506Z,99.90
2018-05-26T02:06:23.115Z,99.90
2018-05-26T02:08:50.644Z,99.90
2018-05-26T02:11:18.284Z,99.90
2018-05-26T02:13:45.812Z,99.90
2018-05-26T02:16:14.293Z,99.90
2018-05-26T02:18:42.601Z,99.90
2018-05-26T02:21:10.137Z,99.90
2018-05-26T02:23:37.817Z,99.90
2018-05-26T02:26:05.357Z,99.90
2018-05-26T02:28:32.900Z,99.90
2018-05-26T02:31:01.209Z,99.90
2018-05-26T02:33:28.752Z,99.90
2018-05-26T02:35:56.276Z,99.90
2018-05-26T02:38:24.596Z,99.90
2018-05-26T02:40:52.141Z,99.90
2018-05-26T02:43:19.809Z,99.90
2018-05-26T02:45:47.402Z,99.90
2018-05-26T02:48:14.956Z,99.90
2018-05-26T02:50:42.486Z,99.90
2018-05-26T02:53:10.226Z,99.90
2018-05-26T02:55:38.638Z,99.90
2018-05-26T02:58:06.229Z,99.90
2018-05-26T03:00:34.013Z,99.90
2018-05-26T03:03:02.381Z,99.90
2018-05-26T03:05:35.624Z,99.90
2018-05-26T03:08:08.946Z,99.90
2018-05-26T03:10:42.016Z,99.90
2018-05-26T03:13:15.219Z,99.90
2018-05-26T03:15:43.390Z,99.90
2018-05-26T03:18:10.924Z,99.90
2018-05-26T03:20:38.461Z,99.90
2018-05-26T03:23:05.992Z,99.90
2018-05-26T03:25:33.533Z,99.90
2018-05-26T03:28:01.089Z,99.90
2018-05-26T03:30:28.637Z,99.90
2018-05-26T03:32:56.160Z,99.90
2018-05-26T03:35:23.704Z,99.90
2018-05-26T03:37:51.269Z,99.90
2018-05-26T03:40:18.861Z,99.90
2018-05-26T03:42:46.417Z,99.90
2018-05-26T03:45:14.044Z,99.90
2018-05-26T03:47:41.618Z,99.90
2018-05-26T03:50:09.192Z,99.90
2018-05-26T03:52:36.838Z,99.90
2018-05-26T03:58:26.124Z,99.90
2018-05-26T04:00:53.636Z,99.90
2018-05-26T04:03:21.950Z,99.90
2018-05-26T04:05:49.519Z,99.90
2018-05-26T04:08:17.792Z,99.90
2018-05-26T04:10:45.330Z,99.90
2018-05-26T04:13:12.890Z,99.90
2018-05-26T04:15:40.415Z,99.90
2018-05-26T04:18:08.084Z,99.90
2018-05-26T04:20:36.427Z,99.90
2018-05-26T04:23:04.103Z,99.90
2018-05-26T04:25:31.813Z,99.90
2018-05-26T04:27:59.333Z,99.90
2018-05-26T04:30:26.876Z,99.90
2018-05-26T04:32:54.498Z,99.90
2018-05-26T04:35:22.199Z,99.90
2018-05-26T04:37:49.680Z,99.90
2018-05-26T04:40:17.972Z,99.90
2018-05-26T04:42:45.549Z,99.90
2018-05-26T04:45:13.107Z,99.90
2018-05-26T04:47:40.660Z,99.90
2018-05-26T04:50:08.223Z,99.90
2018-05-26T04:52:35.783Z,99.90
2018-05-26T04:55:03.300Z,99.90
2018-05-26T04:57:31.625Z,99.90
2018-05-26T04:59:59.148Z,99.90
2018-05-26T05:02:27.461Z,99.90
2018-05-26T05:04:55.176Z,99.90
2018-05-26T05:07:23.508Z,99.90
2018-05-26T05:09:51.037Z,99.90
2018-05-26T05:12:18.604Z,99.90
2018-05-26T05:14:46.117Z,99.90
2018-05-26T05:17:14.408Z,99.90
2018-05-26T05:19:42.725Z,99.90
2018-05-26T05:22:10.264Z,99.90
2018-05-26T05:24:37.824Z,99.90
2018-05-26T05:27:05.354Z,99.90
2018-05-26T05:29:33.677Z,99.90
2018-05-26T05:32:01.201Z,99.90
2018-05-26T05:34:28.761Z,99.90
2018-05-26T05:36:56.292Z,99.90
2018-05-26T05:39:24.672Z,99.90
2018-05-26T05:41:53.008Z,99.90
2018-05-26T05:44:20.661Z,99.90
2018-05-26T05:46:48.182Z,99.90
2018-05-26T05:49:15.736Z,99.90
2018-05-26T05:51:44.061Z,99.90
2018-05-26T05:54:11.701Z,99.90
2018-05-26T05:56:39.257Z,99.90
2018-05-26T05:59:06.814Z,99.90
2018-05-26T06:01:34.357Z,99.90
2018-05-26T06:04:01.970Z,99.90
2018-05-26T06:06:31.096Z,99.90
2018-05-26T06:08:59.442Z,99.90
2018-05-26T06:11:27.001Z,99.90
2018-05-26T06:13:54.552Z,99.90
2018-05-26T06:16:22.096Z,99.90
2018-05-26T06:18:49.753Z,99.90
2018-05-26T06:21:17.314Z,99.90
2018-05-26T06:23:44.861Z,99.90
2018-05-26T06:26:12.417Z,99.90
2018-05-26T06:28:40.005Z,99.90
2018-05-26T06:31:07.753Z,99.90
2018-05-26T06:33:35.394Z,99.90
2018-05-26T06:36:03.164Z,99.90
2018-05-26T06:38:30.924Z,99.90
2018-05-26T06:40:58.453Z,99.90
2018-05-26T06:43:26.138Z,99.90
2018-05-26T06:45:53.729Z,99.90
2018-05-26T06:48:21.293Z,99.90
2018-05-26T06:50:48.877Z,99.90
2018-05-26T06:53:16.532Z,99.90
2018-05-26T06:55:44.057Z,99.90
2018-05-26T06:58:11.708Z,99.90
2018-05-26T07:00:39.244Z,99.90
2018-05-26T07:03:06.771Z,99.90
2018-05-26T07:05:34.334Z,99.90
2018-05-26T07:08:02.641Z,98.80
2018-05-26T07:10:30.320Z,98.80
2018-05-26T07:12:57.852Z,99.80
2018-05-26T07:15:25.536Z,97.10
2018-05-26T07:17:53.316Z,96.80
2018-05-26T07:20:20.882Z,96.40
2018-05-26T07:22:48.415Z,95.50
2018-05-26T07:25:16.070Z,92.40
2018-05-26T07:27:43.593Z,89.90
2018-05-26T07:30:11.917Z,84.00
2018-05-26T07:32:39.569Z,83.90
2018-05-26T07:35:07.101Z,75.80
2018-05-26T07:37:34.775Z,76.90
2018-05-26T07:40:02.334Z,79.10
2018-05-26T07:42:29.929Z,69.60
2018-05-26T07:44:57.489Z,69.30
2018-05-26T07:47:25.181Z,67.60
2018-05-26T07:49:53.557Z,70.20
2018-05-26T07:52:21.206Z,69.50
2018-05-26T07:54:49.507Z,63.20
2018-05-26T07:57:17.095Z,63.10
2018-05-26T07:59:44.690Z,64.50
2018-05-26T08:02:12.303Z,65.10
2018-05-26T08:04:39.816Z,68.60
2018-05-26T08:07:08.160Z,76.10
2018-05-26T08:09:35.685Z,76.10
2018-05-26T08:12:03.245Z,79.20
2018-05-26T08:14:30.772Z,78.50
2018-05-26T08:16:59.289Z,76.70
2018-05-26T08:19:26.825Z,76.70
2018-05-26T08:21:54.613Z,79.50
2018-05-26T08:24:22.164Z,82.00
2018-05-26T08:26:49.779Z,79.70
2018-05-26T08:29:17.358Z,77.40
2018-05-26T08:31:45.845Z,67.40
2018-05-26T08:34:13.461Z,67.50
2018-05-26T08:36:41.086Z,64.80
2018-05-26T08:39:08.625Z,68.80
2018-05-26T08:41:36.283Z,65.00
2018-05-26T08:44:04.659Z,59.40
2018-05-26T08:46:33.000Z,62.80
2018-05-26T08:49:00.574Z,62.70
2018-05-26T08:51:28.954Z,59.30
2018-05-26T08:53:57.371Z,59.20
2018-05-26T08:56:24.938Z,59.10
2018-05-26T08:58:52.489Z,63.30
2018-05-26T09:01:20.065Z,58.00
2018-05-26T09:03:47.597Z,58.10
2018-05-26T09:06:15.152Z,61.70
2018-05-26T09:08:42.719Z,68.10
2018-05-26T09:11:10.316Z,68.50
2018-05-26T09:13:37.945Z,59.60
2018-05-26T09:16:05.517Z,58.80
2018-05-26T09:18:33.161Z,59.40
2018-05-26T09:21:00.704Z,59.70
2018-05-26T09:23:28.237Z,61.30
2018-05-26T09:25:56.580Z,57.40
2018-05-26T09:28:24.252Z,57.40
2018-05-26T09:30:51.786Z,58.50
2018-05-26T09:33:19.397Z,55.10
2018-05-26T09:35:48.009Z,53.70
2018-05-26T09:38:15.532Z,53.40
2018-05-26T09:40:43.823Z,51.20
2018-05-26T09:43:12.172Z,51.50
2018-05-26T09:45:40.477Z,54.30
2018-05-26T09:48:08.053Z,54.10
2018-05-26T09:50:35.659Z,54.20
2018-05-26T09:53:03.207Z,54.60
2018-05-26T09:55:30.741Z,52.80
2018-05-26T09:57:58.285Z,52.80
2018-05-26T10:00:25.804Z,51.70
2018-05-26T10:02:54.252Z,51.10
2018-05-26T10:05:21.822Z,51.10
2018-05-26T10:07:50.940Z,55.30
2018-05-26T10:10:19.281Z,54.60
2018-05-26T10:12:47.017Z,54.50
2018-05-26T10:15:14.520Z,56.60
2018-05-26T10:17:42.130Z,51.90
2018-05-26T10:20:09.653Z,52.40
2018-05-26T10:22:38.009Z,53.60
2018-05-26T10:25:05.540Z,53.50
2018-05-26T10:27:33.210Z,51.50
2018-05-26T10:30:00.767Z,50.60
2018-05-26T10:32:28.433Z,52.60
2018-05-26T10:34:55.997Z,50.60
2018-05-26T10:37:23.555Z,49.30
2018-05-26T10:39:51.277Z,51.00
2018-05-26T10:42:18.784Z,50.70
2018-05-26T10:44:46.338Z,47.80
2018-05-26T10:47:15.487Z,48.20
2018-05-26T10:49:42.977Z,48.30
2018-05-26T10:52:10.706Z,51.20
2018-05-26T10:54:38.265Z,55.00
2018-05-26T10:57:05.802Z,50.30
2018-05-26T10:59:33.417Z,49.80
2018-05-26T11:02:01.074Z,47.10
2018-05-26T11:04:28.674Z,49.30
2018-05-26T11:06:56.213Z,53.20
2018-05-26T11:09:24.522Z,46.30
2018-05-26T11:11:52.094Z,45.80
2018-05-26T11:14:19.608Z,46.70
2018-05-26T11:16:48.050Z,45.20
2018-05-26T11:19:15.578Z,45.00
2018-05-26T11:21:43.153Z,44.80
2018-05-26T11:24:10.736Z,46.40
2018-05-26T11:26:38.253Z,46.00
2018-05-26T11:29:05.941Z,48.20
2018-05-26T11:31:33.639Z,48.60
2018-05-26T11:34:02.778Z,51.10
2018-05-26T11:36:30.466Z,51.00
2018-05-26T11:38:58.074Z,48.50
2018-05-26T11:41:25.593Z,48.30
2018-05-26T11:43:53.268Z,51.80
2018-05-26T11:46:22.341Z,52.10
2018-05-26T11:48:49.906Z,52.20
2018-05-26T11:51:17.427Z,56.30
2018-05-26T11:53:44.981Z,52.50
2018-05-26T11:56:12.499Z,48.80
2018-05-26T11:58:40.836Z,48.60
2018-05-26T12:01:08.561Z,48.00
2018-05-26T12:03:36.180Z,48.70
2018-05-26T12:06:03.703Z,51.00
2018-05-26T12:08:31.262Z,48.40
2018-05-26T12:10:58.856Z,50.90
2018-05-26T12:13:26.389Z,53.00
2018-05-26T12:15:54.138Z,51.50
2018-05-26T12:18:21.895Z,52.60
2018-05-26T12:20:49.432Z,53.20
2018-05-26T12:23:16.983Z,52.60
2018-05-26T12:25:45.313Z,54.00
2018-05-26T12:28:12.986Z,53.90
2018-05-26T12:30:40.672Z,50.30
2018-05-26T12:33:08.981Z,50.90
2018-05-26T12:35:36.606Z,50.80
2018-05-26T12:38:04.918Z,51.20
2018-05-26T12:40:32.454Z,51.10
2018-05-26T12:43:00.009Z,51.90
2018-05-26T12:45:28.415Z,50.20
2018-05-26T12:47:56.081Z,50.10
2018-05-26T12:50:23.629Z,51.20
2018-05-26T12:52:51.266Z,51.20
2018-05-26T12:55:18.841Z,49.60
2018-05-26T12:57:46.393Z,50.60
2018-05-26T13:00:14.034Z,50.30
2018-05-26T13:02:42.352Z,50.50
2018-05-26T13:05:09.868Z,50.50
2018-05-26T13:07:38.329Z,50.80
2018-05-26T13:10:06.703Z,51.00
2018-05-26T13:12:34.337Z,51.20
2018-05-26T13:15:02.106Z,52.00
2018-05-26T13:17:29.730Z,51.40
2018-05-26T13:19:57.401Z,51.70
2018-05-26T13:22:24.959Z,50.10
2018-05-26T13:24:52.504Z,50.10
2018-05-26T13:27:20.042Z,48.80
2018-05-26T13:29:48.370Z,48.90
2018-05-26T13:32:15.925Z,49.00
2018-05-26T13:34:43.517Z,49.00
2018-05-26T13:37:11.918Z,52.40
2018-05-26T13:39:40.360Z,50.20
2018-05-26T13:42:07.986Z,50.20
2018-05-26T13:44:35.522Z,49.80
2018-05-26T13:47:03.201Z,50.30
2018-05-26T13:49:30.758Z,49.00
2018-05-26T13:51:58.479Z,48.70
2018-05-26T13:54:25.984Z,51.60
2018-05-26T13:56:53.539Z,51.70
2018-05-26T13:59:21.115Z,49.50
2018-05-26T14:01:48.753Z,48.40
2018-05-26T14:04:17.076Z,49.80
2018-05-26T14:06:44.622Z,49.80
2018-05-26T14:09:12.345Z,47.30
2018-05-26T14:11:39.869Z,46.80
2018-05-26T14:14:08.288Z,48.60
2018-05-26T14:16:35.818Z,48.30
2018-05-26T14:19:04.244Z,47.00
2018-05-26T14:21:31.771Z,47.00
2018-05-26T14:23:59.337Z,48.30
2018-05-26T14:26:26.981Z,49.50
2018-05-26T14:28:54.545Z,46.90
2018-05-26T14:31:22.074Z,49.20
2018-05-26T14:33:50.595Z,48.80
2018-05-26T14:36:18.274Z,48.70
2018-05-26T14:38:45.813Z,48.90
2018-05-26T14:41:13.576Z,49.10
2018-05-26T14:43:41.101Z,49.10
2018-05-26T14:46:09.512Z,49.60
2018-05-26T14:48:37.040Z,49.50
2018-05-26T14:51:05.352Z,48.00
2018-05-26T14:53:32.980Z,47.90
2018-05-26T14:56:00.597Z,49.90
2018-05-26T14:58:28.218Z,53.70
2018-05-26T15:00:55.761Z,48.80
2018-05-26T15:03:23.425Z,49.30
2018-05-26T15:05:51.035Z,50.30
2018-05-26T15:08:18.605Z,52.60
2018-05-26T15:10:46.317Z,49.80
2018-05-26T15:13:13.975Z,50.00
2018-05-26T15:15:42.237Z,51.40
2018-05-26T15:18:09.781Z,51.30
2018-05-26T15:20:38.086Z,52.50
2018-05-26T15:23:05.633Z,52.40
2018-05-26T15:25:33.178Z,52.60
2018-05-26T15:28:01.473Z,52.70
2018-05-26T15:30:29.141Z,52.60
2018-05-26T15:32:56.780Z,52.30
2018-05-26T15:35:24.309Z,52.20
2018-05-26T15:37:51.936Z,53.10
2018-05-26T15:40:19.501Z,54.00
2018-05-26T15:42:47.035Z,52.20
2018-05-26T15:45:14.620Z,52.90
2018-05-26T15:47:42.180Z,52.00
2018-05-26T15:50:09.738Z,52.40
2018-05-26T15:52:37.280Z,53.40
2018-05-26T15:55:04.858Z,53.30
2018-05-26T15:57:32.460Z,53.00
2018-05-26T16:00:00.050Z,54.20
2018-05-26T16:02:28.432Z,53.00
2018-05-26T16:04:55.964Z,53.00
2018-05-26T16:07:23.485Z,52.80
2018-05-26T16:09:51.041Z,53.90
2018-05-26T16:12:18.594Z,54.00
2018-05-26T16:14:46.215Z,53.40
2018-05-26T16:17:13.814Z,53.60
2018-05-26T16:19:41.325Z,52.50
2018-05-26T16:22:08.930Z,52.00
2018-05-26T16:24:36.486Z,53.60
2018-05-26T16:27:04.037Z,52.20
2018-05-26T16:29:31.702Z,51.20
2018-05-26T16:31:59.228Z,51.80
2018-05-26T16:34:26.800Z,51.40
2018-05-26T16:36:54.532Z,51.10
2018-05-26T16:39:22.185Z,50.00
2018-05-26T16:41:49.753Z,51.60
2018-05-26T16:44:17.318Z,50.40
2018-05-26T16:46:44.840Z,50.10
2018-05-26T16:49:13.256Z,49.30
2018-05-26T16:51:40.791Z,49.20
2018-05-26T16:54:08.577Z,49.80
2018-05-26T16:56:36.110Z,51.00
2018-05-26T16:59:04.417Z,48.90
2018-05-26T17:01:31.957Z,48.90
2018-05-26T17:03:59.525Z,50.10
2018-05-26T17:06:27.028Z,49.90
2018-05-26T17:08:54.642Z,50.60
2018-05-26T17:11:22.155Z,51.20
2018-05-26T17:13:50.619Z,55.90
2018-05-26T17:16:18.141Z,55.80
2018-05-26T17:18:45.729Z,56.50
2018-05-26T17:21:13.270Z,57.50
2018-05-26T17:23:40.803Z,58.10
2018-05-26T17:26:08.446Z,59.20
2018-05-26T17:28:36.130Z,59.00
2018-05-26T17:31:03.665Z,59.30
2018-05-26T17:33:31.229Z,59.70
2018-05-26T17:35:58.813Z,60.60
2018-05-26T17:38:26.473Z,61.30
2018-05-26T17:40:54.053Z,62.80
2018-05-26T17:43:21.616Z,60.20
2018-05-26T17:45:49.177Z,59.60
2018-05-26T17:48:16.741Z,61.30
2018-05-26T17:50:44.466Z,61.70
2018-05-26T17:53:11.977Z,61.80
2018-05-26T17:55:40.465Z,61.20
2018-05-26T17:58:08.887Z,60.90
2018-05-26T18:00:36.410Z,60.80
2018-05-26T18:03:03.977Z,59.50
2018-05-26T18:05:31.505Z,59.40
2018-05-26T18:07:59.961Z,61.70
2018-05-26T18:10:27.504Z,61.70
2018-05-26T18:12:55.042Z,59.40
2018-05-26T18:15:22.769Z,59.40
2018-05-26T18:17:51.084Z,59.90
2018-05-26T18:20:18.605Z,59.90
2018-05-26T18:22:46.918Z,60.00
2018-05-26T18:25:14.457Z,59.90
2018-05-26T18:27:42.015Z,60.40
2018-05-26T18:30:09.546Z,61.00
2018-05-26T18:32:38.045Z,62.20
2018-05-26T18:35:06.368Z,62.20
2018-05-26T18:37:33.944Z,62.10
2018-05-26T18:40:01.568Z,62.30
2018-05-26T18:42:29.222Z,63.70
2018-05-26T18:44:56.773Z,63.30
2018-05-26T18:47:24.477Z,63.50
2018-05-26T18:49:52.000Z,63.20
2018-05-26T18:52:19.572Z,63.30
2018-05-26T18:54:47.176Z,63.50
2018-05-26T18:57:14.697Z,63.10
2018-05-26T18:59:42.248Z,63.10
2018-05-26T19:02:09.773Z,63.30
2018-05-26T19:04:37.497Z,63.80
2018-05-26T19:07:05.018Z,64.10
2018-05-26T19:09:32.569Z,64.60
2018-05-26T19:12:00.123Z,65.40
2018-05-26T19:14:27.808Z,67.00
2018-05-26T19:16:55.525Z,66.40
2018-05-26T19:19:23.057Z,67.00
2018-05-26T19:21:50.649Z,68.40
2018-05-26T19:24:18.225Z,68.90
2018-05-26T19:26:45.757Z,69.20
2018-05-26T19:29:13.305Z,68.60
2018-05-26T19:31:41.674Z,67.60
2018-05-26T19:34:09.990Z,67.80
2018-05-26T19:36:37.627Z,67.80
2018-05-26T19:39:05.943Z,67.70
2018-05-26T19:41:33.665Z,67.70
2018-05-26T19:44:01.261Z,68.00
2018-05-26T19:46:28.817Z,68.90
2018-05-26T19:48:56.466Z,69.40
2018-05-26T19:51:24.033Z,70.20
2018-05-26T19:53:51.570Z,70.20
2018-05-26T19:56:19.117Z,71.20
2018-05-26T19:58:47.590Z,71.40
2018-05-26T20:01:15.901Z,71.90
2018-05-26T20:03:43.452Z,71.70
2018-05-26T20:06:10.982Z,71.70
2018-05-26T20:08:39.309Z,72.20
2018-05-26T20:13:30.919Z,72.10
2018-05-26T20:15:58.437Z,72.00
2018-05-26T20:18:26.769Z,72.90
2018-05-26T20:20:54.307Z,72.90
2018-05-26T20:23:21.872Z,74.50
2018-05-26T20:25:49.402Z,75.70
2018-05-26T20:28:16.988Z,77.00
2018-05-26T20:30:44.544Z,78.60
2018-05-26T20:33:12.101Z,79.50
2018-05-26T20:35:39.676Z,80.30
2018-05-26T20:38:07.218Z,82.00
2018-05-26T20:40:34.753Z,81.00
2018-05-26T20:43:02.314Z,81.80
2018-05-26T20:45:30.016Z,82.00
2018-05-26T20:47:57.613Z,80.90
2018-05-26T20:50:26.048Z,83.00
2018-05-26T20:52:53.592Z,82.90
2018-05-26T20:55:21.166Z,81.80
2018-05-26T20:57:48.814Z,82.70
2018-05-26T21:00:16.495Z,83.50
2018-05-26T21:02:44.024Z,83.80
2018-05-26T21:05:11.708Z,84.60
2018-05-26T21:07:39.293Z,83.40
2018-05-26T21:10:06.938Z,84.10
2018-05-26T21:12:34.675Z,82.80
2018-05-26T21:15:02.243Z,84.00
2018-05-26T21:17:29.757Z,85.50
2018-05-26T21:19:58.059Z,87.40
2018-05-26T21:22:25.621Z,87.50
2018-05-26T21:24:53.228Z,88.50
2018-05-26T21:27:20.785Z,87.70
2018-05-26T21:29:48.517Z,85.90
2018-05-26T21:32:16.140Z,85.30
2018-05-26T21:34:44.521Z,86.10
2018-05-26T21:37:12.150Z,86.00
2018-05-26T21:39:39.739Z,88.10
2018-05-26T21:42:08.081Z,86.20
2018-05-26T21:44:35.652Z,86.20
2018-05-26T21:47:04.028Z,87.60
2018-05-26T21:49:32.350Z,86.30
2018-05-26T21:51:59.866Z,86.10
2018-05-26T21:54:28.221Z,86.60
2018-05-26T21:56:55.849Z,86.60
2018-05-26T21:59:23.429Z,86.80
2018-05-26T22:01:51.180Z,87.70
2018-05-26T22:04:18.709Z,89.00
2018-05-26T22:06:46.274Z,89.30
2018-05-26T22:09:13.832Z,89.60
2018-05-26T22:11:41.421Z,89.40
2018-05-26T22:14:09.118Z,90.00
2018-05-26T22:16:37.484Z,89.20
2018-05-26T22:19:05.048Z,89.10
2018-05-26T22:21:33.353Z,92.90
2018-05-26T22:24:00.900Z,91.10
2018-05-26T22:26:28.436Z,90.60
2018-05-26T22:28:56.757Z,90.60
2018-05-26T22:31:24.400Z,90.60
2018-05-26T22:33:51.888Z,91.10
2018-05-26T22:36:19.409Z,91.50
2018-05-26T22:38:47.108Z,90.90
2018-05-26T22:41:14.669Z,91.70
2018-05-26T22:43:42.307Z,91.60
2018-05-26T22:46:09.844Z,92.40
2018-05-26T22:48:37.368Z,93.00
2018-05-26T22:51:04.929Z,93.00
2018-05-26T22:53:32.494Z,92.60
2018-05-26T22:56:00.007Z,93.50
2018-05-26T22:58:27.545Z,93.90
2018-05-26T23:00:55.092Z,94.30
2018-05-26T23:03:22.800Z,93.10
2018-05-26T23:05:50.418Z,93.50
2018-05-26T23:08:17.876Z,93.80
2018-05-26T23:10:45.461Z,93.60
2018-05-26T23:13:13.003Z,93.80
2018-05-26T23:15:40.664Z,93.70
2018-05-26T23:18:08.333Z,93.70
2018-05-26T23:20:35.864Z,94.90
2018-05-26T23:23:03.435Z,94.20
2018-05-26T23:25:30.954Z,92.80
2018-05-26T23:27:59.549Z,93.90
2018-05-26T23:30:27.841Z,93.90
2018-05-26T23:32:55.410Z,93.90
2018-05-26T23:35:22.950Z,94.10
2018-05-26T23:37:50.587Z,94.40
2018-05-26T23:40:18.270Z,95.50
2018-05-26T23:42:45.852Z,95.40
2018-05-26T23:45:13.399Z,94.90
2018-05-26T23:47:40.925Z,95.20
2018-05-26T23:50:08.458Z,95.40
2018-05-26T23:52:35.973Z,95.20
2018-05-26T23:55:03.529Z,96.10
2018-05-26T23:57:31.056Z,95.90
2018-05-26T23:59:58.596Z,95.50
